Time;durP1;ratioP1;P1;durP2;ratioP2;P2;SDS_P1;SDS_P2;PMS_P1;PMS_P2;Temp;Humidity;BMP_temperature;BMP_pressure;BME280_temperature;BME280_humidity;BME280_pressure;Samples;Min_cycle;Max_cycle;Signal;HPM_P1;HPM_P2
2024/03/30 00:03:28;;;;;;;;;12.33;12.33;;;;;;;;6489381;47;9095;-53
2024/03/30 00:09:29;;;;;;;;;14.67;13.00;;;;;;;;6490055;39;8847;-55
2024/03/30 00:15:32;;;;;;;;;15.33;14.00;;;;;;;;6490380;47;8962;-53
2024/03/30 00:21:33;;;;;;;;;14.33;14.33;;;;;;;;6490046;39;8992;-53
2024/03/30 00:27:34;;;;;;;;;14.67;13.00;;;;;;;;6491404;39;8895;-53
2024/03/30 00:33:35;;;;;;;;;15.67;13.33;;;;;;;;6491840;31;9026;-54
2024/03/30 00:39:35;;;;;;;;;15.67;15.00;;;;;;;;6491835;39;8978;-54
2024/03/30 00:45:38;;;;;;;;;16.00;16.00;;;;;;;;6492656;39;8891;-51
2024/03/30 00:51:38;;;;;;;;;15.67;15.67;;;;;;;;6492204;39;9633;-50
2024/03/30 00:57:43;;;;;;;;;18.33;17.00;;;;;;;;6491848;39;8942;-49
2024/03/30 01:03:44;;;;;;;;;19.00;17.00;;;;;;;;6492436;31;9075;-53
2024/03/30 01:09:44;;;;;;;;;17.00;15.33;;;;;;;;6491730;39;8884;-56
2024/03/30 01:15:46;;;;;;;;;18.67;16.00;;;;;;;;6492892;31;8914;-54
2024/03/30 01:21:48;;;;;;;;;14.00;13.67;;;;;;;;6491375;39;8924;-57
2024/03/30 01:27:50;;;;;;;;;23.00;21.33;;;;;;;;6491451;46;9023;-54
2024/03/30 01:33:52;;;;;;;;;17.00;16.00;;;;;;;;6491912;39;8974;-56
2024/03/30 01:39:54;;;;;;;;;24.33;20.00;;;;;;;;6491577;39;8935;-53
2024/03/30 01:45:56;;;;;;;;;20.33;19.33;;;;;;;;6490882;39;9495;-52
2024/03/30 01:51:59;;;;;;;;;22.33;19.33;;;;;;;;6490475;39;8892;-54
2024/03/30 01:58:02;;;;;;;;;23.00;22.67;;;;;;;;6491736;46;8927;-53
2024/03/30 02:04:04;;;;;;;;;22.50;19.00;;;;;;;;6491845;39;9082;-53
2024/03/30 02:10:07;;;;;;;;;20.67;18.00;;;;;;;;6491080;46;8888;-57
2024/03/30 02:16:09;;;;;;;;;18.33;15.67;;;;;;;;6491683;46;8938;-52
2024/03/30 02:22:17;;;;;;;;;12.33;12.33;;;;;;;;6490670;46;9022;-54
2024/03/30 02:28:20;;;;;;;;;19.00;17.00;;;;;;;;6491910;39;9024;-54
2024/03/30 02:34:21;;;;;;;;;21.67;17.00;;;;;;;;6491081;46;8964;-55
2024/03/30 02:40:27;;;;;;;;;20.00;15.33;;;;;;;;6489197;46;9082;-54
2024/03/30 02:46:28;;;;;;;;;20.33;18.00;;;;;;;;6491480;46;8895;-54
2024/03/30 02:52:29;;;;;;;;;18.00;16.00;;;;;;;;6490400;39;8930;-52
2024/03/30 02:58:30;;;;;;;;;17.00;17.00;;;;;;;;6491811;39;8993;-57
2024/03/30 03:04:31;;;;;;;;;14.33;14.00;;;;;;;;6490849;39;8987;-55
2024/03/30 03:10:32;;;;;;;;;20.33;18.00;;;;;;;;6490196;39;9698;-53
2024/03/30 03:16:34;;;;;;;;;18.67;18.33;;;;;;;;6491273;39;9022;-53
2024/03/30 03:22:37;;;;;;;;;21.00;21.00;;;;;;;;6490015;39;9086;-50
2024/03/30 03:28:39;;;;;;;;;30.33;26.00;;;;;;;;6491518;39;8856;-51
2024/03/30 03:34:40;;;;;;;;;26.67;25.00;;;;;;;;6490996;39;9026;-51
2024/03/30 03:40:41;;;;;;;;;26.33;25.33;;;;;;;;6490239;47;9046;-53
2024/03/30 03:46:43;;;;;;;;;25.25;24.75;;;;;;;;6491483;31;9582;-54
2024/03/30 03:52:43;;;;;;;;;29.33;24.33;;;;;;;;6489446;47;8948;-53
2024/03/30 03:58:44;;;;;;;;;30.00;27.75;;;;;;;;6490226;31;8976;-56
2024/03/30 04:04:46;;;;;;;;;35.00;30.00;;;;;;;;6491811;46;8904;-51
2024/03/30 04:10:48;;;;;;;;;29.75;26.75;;;;;;;;6491982;39;9012;-55
2024/03/30 04:16:49;;;;;;;;;32.75;26.75;;;;;;;;6493056;39;8968;-54
2024/03/30 04:22:51;;;;;;;;;28.00;27.25;;;;;;;;6492209;39;9031;-51
2024/03/30 04:28:53;;;;;;;;;28.33;25.00;;;;;;;;6492199;46;8876;-53
2024/03/30 04:34:54;;;;;;;;;29.75;28.50;;;;;;;;6492322;31;9019;-54
2024/03/30 04:40:59;;;;;;;;;28.50;27.00;;;;;;;;6491888;39;9074;-55
2024/03/30 04:47:00;;;;;;;;;28.75;26.25;;;;;;;;6492246;39;9047;-50
2024/03/30 04:53:01;;;;;;;;;28.67;26.00;;;;;;;;6491826;39;9015;-54
2024/03/30 04:59:02;;;;;;;;;36.33;30.00;;;;;;;;6491507;39;8900;-56
2024/03/30 05:05:03;;;;;;;;;21.67;21.33;;;;;;;;6492647;31;8955;-53
2024/03/30 05:11:05;;;;;;;;;27.67;25.00;;;;;;;;6491117;46;8882;-53
2024/03/30 05:17:06;;;;;;;;;24.00;24.00;;;;;;;;6491846;39;8982;-50
2024/03/30 05:23:08;;;;;;;;;25.67;21.67;;;;;;;;6491638;39;8872;-53
2024/03/30 05:29:08;;;;;;;;;30.00;28.67;;;;;;;;6490891;39;9522;-49
2024/03/30 05:35:10;;;;;;;;;35.67;33.33;;;;;;;;6491582;39;9054;-53
2024/03/30 05:41:11;;;;;;;;;32.00;30.00;;;;;;;;6491157;39;8952;-53
2024/03/30 05:47:11;;;;;;;;;33.33;28.00;;;;;;;;6491705;39;9618;-52
2024/03/30 05:53:12;;;;;;;;;29.00;27.33;;;;;;;;6491246;39;8912;-56
2024/03/30 05:59:13;;;;;;;;;30.33;28.67;;;;;;;;6491452;39;8868;-50
2024/03/30 06:05:15;;;;;;;;;27.67;26.00;;;;;;;;6491716;46;8923;-58
2024/03/30 06:11:16;;;;;;;;;30.33;28.33;;;;;;;;6491537;39;9626;-53
2024/03/30 06:17:17;;;;;;;;;14.67;13.33;;;;;;;;6491182;39;8999;-54
2024/03/30 06:23:18;;;;;;;;;28.67;27.00;;;;;;;;6491214;31;8892;-53
2024/03/30 06:29:19;;;;;;;;;26.67;25.33;;;;;;;;6491741;39;9006;-53
2024/03/30 06:35:20;;;;;;;;;37.00;32.33;;;;;;;;6492232;31;8938;-51
2024/03/30 06:47:41;;;;;;;;;27.67;26.67;;;;;;;;6491168;39;9618;-54
2024/03/30 06:53:41;;;;;;;;;35.00;32.00;;;;;;;;6490726;39;8895;-53
2024/03/30 06:59:42;;;;;;;;;33.00;28.67;;;;;;;;6490545;39;8975;-54
2024/03/30 07:05:43;;;;;;;;;31.67;27.67;;;;;;;;6491324;39;8928;-54
2024/03/30 07:11:44;;;;;;;;;25.00;25.00;;;;;;;;6490824;39;8922;-50
2024/03/30 07:17:45;;;;;;;;;27.67;26.00;;;;;;;;6490456;46;9002;-53
2024/03/30 07:23:46;;;;;;;;;21.00;21.00;;;;;;;;6489601;46;8970;-55
2024/03/30 07:29:52;;;;;;;;;23.67;19.00;;;;;;;;6489790;46;8855;-55
2024/03/30 07:35:54;;;;;;;;;18.33;18.33;;;;;;;;6490481;39;9054;-57
2024/03/30 07:41:56;;;;;;;;;24.50;22.00;;;;;;;;6490975;39;9014;-55
2024/03/30 07:47:57;;;;;;;;;20.67;18.67;;;;;;;;6490616;39;8934;-54
2024/03/30 07:53:59;;;;;;;;;21.67;18.33;;;;;;;;6490375;39;8924;-57
2024/03/30 08:00:00;;;;;;;;;14.50;14.50;;;;;;;;6490117;39;8980;-56
2024/03/30 08:06:02;;;;;;;;;19.25;16.50;;;;;;;;6490232;39;9543;-52
2024/03/30 08:12:03;;;;;;;;;18.00;17.00;;;;;;;;6489373;39;9011;-56
2024/03/30 08:18:04;;;;;;;;;25.00;21.25;;;;;;;;6488920;39;9058;-53
2024/03/30 08:24:07;;;;;;;;;21.75;17.00;;;;;;;;6490636;39;8928;-53
2024/03/30 08:30:09;;;;;;;;;13.67;12.67;;;;;;;;6489516;47;8859;-56
2024/03/30 08:36:12;;;;;;;;;19.50;19.50;;;;;;;;6490125;39;9564;-54
2024/03/30 08:42:13;;;;;;;;;18.00;16.25;;;;;;;;6489229;39;8971;-55
2024/03/30 08:48:15;;;;;;;;;21.50;18.75;;;;;;;;6490842;39;8899;-55
2024/03/30 08:54:16;;;;;;;;;19.25;17.50;;;;;;;;6492443;39;8903;-56
2024/03/30 09:00:18;;;;;;;;;16.00;16.00;;;;;;;;6491178;39;8922;-55
2024/03/30 09:06:19;;;;;;;;;20.25;20.25;;;;;;;;6492035;39;9078;-55
2024/03/30 09:12:21;;;;;;;;;19.75;15.75;;;;;;;;6491793;39;8892;-55
2024/03/30 09:18:24;;;;;;;;;16.75;15.75;;;;;;;;6490701;39;9609;-54
2024/03/30 09:24:25;;;;;;;;;18.75;16.00;;;;;;;;6492097;39;8872;-55
2024/03/30 09:30:26;;;;;;;;;17.00;15.50;;;;;;;;6491003;39;9007;-55
2024/03/30 09:36:27;;;;;;;;;14.00;14.00;;;;;;;;6491481;39;8825;-55
2024/03/30 09:42:35;;;;;;;;;18.50;16.50;;;;;;;;6492504;31;8943;-56
2024/03/30 09:48:38;;;;;;;;;16.50;16.25;;;;;;;;6490932;31;8852;-53
2024/03/30 09:54:39;;;;;;;;;14.50;13.25;;;;;;;;6491712;31;8925;-57
2024/03/30 10:00:41;;;;;;;;;14.50;13.00;;;;;;;;6490545;46;8931;-54
2024/03/30 10:06:55;;;;;;;;;13.50;11.25;;;;;;;;6491213;46;8962;-55
2024/03/30 10:13:07;;;;;;;;;15.50;13.00;;;;;;;;6490476;39;8977;-56
2024/03/30 10:19:11;;;;;;;;;17.25;13.50;;;;;;;;6490893;39;8880;-54
2024/03/30 10:25:13;;;;;;;;;14.00;12.75;;;;;;;;6492010;39;9594;-57
2024/03/30 10:31:15;;;;;;;;;16.75;14.00;;;;;;;;6490419;46;8990;-55
2024/03/30 10:37:16;;;;;;;;;14.75;12.50;;;;;;;;6491345;39;8974;-55
2024/03/30 10:43:17;;;;;;;;;12.00;12.00;;;;;;;;6491067;39;9681;-56
2024/03/30 10:49:19;;;;;;;;;11.00;11.00;;;;;;;;6491052;39;9055;-56
2024/03/30 10:55:22;;;;;;;;;11.00;10.00;;;;;;;;6491201;46;8864;-56
2024/03/30 11:01:23;;;;;;;;;11.00;10.25;;;;;;;;6490162;39;8978;-56
2024/03/30 11:07:24;;;;;;;;;12.00;11.00;;;;;;;;6489823;39;8896;-57
2024/03/30 11:13:25;;;;;;;;;10.75;10.75;;;;;;;;6491195;39;9027;-55
2024/03/30 11:19:34;;;;;;;;;12.25;12.25;;;;;;;;6490718;39;8934;-53
2024/03/30 11:25:38;;;;;;;;;16.50;15.50;;;;;;;;6490465;46;8991;-55
2024/03/30 11:31:54;;;;;;;;;14.00;14.00;;;;;;;;6490454;39;9534;-53
2024/03/30 11:37:57;;;;;;;;;13.00;12.25;;;;;;;;6490915;39;8989;-57
2024/03/30 11:44:13;;;;;;;;;15.00;14.00;;;;;;;;6490019;47;8982;-53
2024/03/30 11:50:15;;;;;;;;;16.50;13.00;;;;;;;;6489996;39;9006;-53
2024/03/30 11:56:16;;;;;;;;;16.25;12.50;;;;;;;;6490458;47;8844;-56
2024/03/30 12:02:17;;;;;;;;;10.00;10.00;;;;;;;;6490173;39;8963;-54
2024/03/30 12:08:23;;;;;;;;;15.50;13.50;;;;;;;;6490480;47;8887;-54
2024/03/30 12:14:26;;;;;;;;;16.00;15.25;;;;;;;;6489621;47;8892;-54
2024/03/30 12:20:29;;;;;;;;;11.00;11.00;;;;;;;;6490162;39;9034;-55
2024/03/30 12:26:30;;;;;;;;;14.50;11.50;;;;;;;;6492023;46;9070;-55
2024/03/30 12:32:31;;;;;;;;;11.50;11.50;;;;;;;;6491075;46;8916;-54
2024/03/30 12:38:33;;;;;;;;;15.50;11.75;;;;;;;;6492958;31;8918;-55
2024/03/30 12:44:36;;;;;;;;;15.50;13.25;;;;;;;;6491356;39;8872;-56
2024/03/30 12:50:37;;;;;;;;;14.25;12.25;;;;;;;;6491797;39;9035;-55
2024/03/30 12:56:38;;;;;;;;;11.50;11.50;;;;;;;;6491387;46;9051;-54
2024/03/30 13:02:49;;;;;;;;;13.75;13.50;;;;;;;;6491641;39;9067;-52
2024/03/30 13:08:53;;;;;;;;;10.25;10.25;;;;;;;;6492348;39;8955;-56
2024/03/30 13:14:54;;;;;;;;;12.75;11.50;;;;;;;;6492208;39;8907;-56
2024/03/30 13:20:58;;;;;;;;;14.50;11.25;;;;;;;;6491387;46;8920;-55
2024/03/30 13:26:59;;;;;;;;;13.50;13.50;;;;;;;;6491206;46;9056;-54
2024/03/30 13:33:00;;;;;;;;;13.50;12.25;;;;;;;;6491768;39;8994;-54
2024/03/30 13:39:04;;;;;;;;;14.50;13.25;;;;;;;;6492202;39;8900;-56
2024/03/30 13:45:06;;;;;;;;;16.00;15.00;;;;;;;;6492113;31;8931;-57
2024/03/30 13:51:07;;;;;;;;;10.00;8.75;;;;;;;;6491871;39;8872;-53
2024/03/30 13:57:13;;;;;;;;;10.00;9.50;;;;;;;;6490301;39;8883;-54
2024/03/30 14:03:17;;;;;;;;;9.25;9.25;;;;;;;;6491069;31;9166;-54
2024/03/30 14:09:18;;;;;;;;;11.75;11.75;;;;;;;;6491918;39;8895;-57
2024/03/30 14:15:19;;;;;;;;;17.25;16.75;;;;;;;;6491465;39;9042;-55
2024/03/30 14:21:20;;;;;;;;;14.50;12.75;;;;;;;;6491047;46;8883;-55
2024/03/30 14:27:22;;;;;;;;;10.50;10.50;;;;;;;;6491416;46;8998;-53
2024/03/30 14:33:24;;;;;;;;;8.25;8.25;;;;;;;;6491449;39;8939;-54
2024/03/30 14:39:26;;;;;;;;;11.25;9.75;;;;;;;;6491091;46;8900;-53
2024/03/30 14:45:27;;;;;;;;;11.00;10.75;;;;;;;;6491107;39;9002;-54
2024/03/30 14:51:28;;;;;;;;;14.25;11.75;;;;;;;;6489993;46;8852;-55
2024/03/30 14:57:30;;;;;;;;;9.25;9.25;;;;;;;;6491087;31;8986;-54
2024/03/30 15:03:41;;;;;;;;;14.00;12.25;;;;;;;;6491028;39;9043;-54
2024/03/30 15:09:42;;;;;;;;;12.50;11.75;;;;;;;;6490886;46;8923;-54
2024/03/30 15:15:44;;;;;;;;;12.00;12.00;;;;;;;;6490915;39;9023;-56
2024/03/30 15:21:45;;;;;;;;;12.00;11.50;;;;;;;;6491376;31;9027;-57
2024/03/30 15:27:47;;;;;;;;;36.50;31.75;;;;;;;;6491029;31;8990;-55
2024/03/30 15:33:50;;;;;;;;;11.75;8.75;;;;;;;;6490067;39;8994;-56
2024/03/30 15:39:52;;;;;;;;;39.33;34.33;;;;;;;;6490780;46;8915;-54
2024/03/30 15:45:59;;;;;;;;;14.00;12.50;;;;;;;;6489804;47;8970;-55
2024/03/30 15:52:00;;;;;;;;;11.25;10.50;;;;;;;;6491344;31;8955;-57
2024/03/30 15:58:01;;;;;;;;;12.25;10.75;;;;;;;;6492179;39;8884;-55
2024/03/30 16:04:04;;;;;;;;;12.00;9.50;;;;;;;;6492335;39;8959;-54
2024/03/30 16:10:05;;;;;;;;;14.00;13.25;;;;;;;;6492072;46;8954;-58
2024/03/30 16:16:07;;;;;;;;;9.25;8.00;;;;;;;;6492499;39;8975;-54
2024/03/30 16:22:08;;;;;;;;;12.00;11.75;;;;;;;;6491975;31;9071;-54
2024/03/30 16:28:09;;;;;;;;;13.00;11.00;;;;;;;;6492177;46;9002;-53
2024/03/30 16:34:10;;;;;;;;;15.50;15.00;;;;;;;;6491405;46;8946;-53
2024/03/30 16:40:11;;;;;;;;;19.25;18.75;;;;;;;;6491561;39;9018;-57
2024/03/30 16:46:13;;;;;;;;;26.25;24.75;;;;;;;;6491517;31;9030;-55
2024/03/30 16:52:14;;;;;;;;;35.00;30.67;;;;;;;;6491936;36;139953;-55
2024/03/30 16:58:15;;;;;;;;;35.00;33.00;;;;;;;;6494063;31;8861;-55
2024/03/30 17:04:18;;;;;;;;;49.33;40.67;;;;;;;;6491252;46;8937;-55
2024/03/30 17:10:20;;;;;;;;;22.00;19.00;;;;;;;;6491843;46;8897;-55
2024/03/30 17:16:21;;;;;;;;;21.75;20.75;;;;;;;;6491893;39;8853;-56
2024/03/30 17:22:22;;;;;;;;;26.00;24.33;;;;;;;;6491053;36;130335;-56
2024/03/30 17:28:24;;;;;;;;;30.33;27.67;;;;;;;;6492630;39;8968;-53
2024/03/30 17:34:27;;;;;;;;;30.00;28.67;;;;;;;;6491248;39;8847;-56
2024/03/30 17:40:29;;;;;;;;;29.67;27.67;;;;;;;;6491038;31;9133;-55
2024/03/30 17:46:30;;;;;;;;;39.33;34.33;;;;;;;;6492555;31;8874;-55
2024/03/30 17:52:31;;;;;;;;;32.00;31.33;;;;;;;;6491171;39;8894;-59
2024/03/30 17:58:35;;;;;;;;;39.33;35.67;;;;;;;;6491737;46;9010;-54
2024/03/30 18:04:38;;;;;;;;;43.67;36.00;;;;;;;;6491149;39;9075;-56
2024/03/30 18:10:51;;;;;;;;;32.33;30.67;;;;;;;;6490893;46;8892;-54
2024/03/30 18:16:52;;;;;;;;;30.67;29.67;;;;;;;;6491327;39;8885;-54
2024/03/30 18:22:53;;;;;;;;;35.33;31.33;;;;;;;;6490544;46;9071;-55
2024/03/30 18:28:55;;;;;;;;;32.67;31.67;;;;;;;;6491721;46;9032;-54
2024/03/30 18:34:58;;;;;;;;;30.67;28.67;;;;;;;;6490194;46;8954;-55
2024/03/30 18:41:01;;;;;;;;;21.67;20.00;;;;;;;;6491292;46;8905;-51
2024/03/30 18:47:04;;;;;;;;;33.67;30.33;;;;;;;;6491071;39;9597;-52
2024/03/30 18:53:05;;;;;;;;;20.67;20.67;;;;;;;;6491028;39;8943;-54
2024/03/30 18:59:08;;;;;;;;;39.00;35.00;;;;;;;;6492299;31;8957;-52
2024/03/30 19:05:09;;;;;;;;;29.00;26.67;;;;;;;;6491621;31;9003;-55
2024/03/30 19:11:13;;;;;;;;;47.33;38.67;;;;;;;;6491024;39;8989;-53
2024/03/30 19:17:16;;;;;;;;;32.00;27.33;;;;;;;;6490360;46;8893;-56
2024/03/30 19:23:18;;;;;;;;;40.00;35.00;;;;;;;;6491336;31;8875;-56
2024/03/30 19:29:19;;;;;;;;;42.00;36.33;;;;;;;;6489967;46;8893;-56
2024/03/30 19:35:20;;;;;;;;;50.33;41.00;;;;;;;;6490932;39;9479;-55
2024/03/30 19:41:21;;;;;;;;;53.33;42.33;;;;;;;;6490632;39;8957;-55
2024/03/30 19:47:23;;;;;;;;;36.33;33.33;;;;;;;;6490673;39;8902;-53
2024/03/30 19:53:24;;;;;;;;;38.33;35.67;;;;;;;;6490003;46;9008;-56
2024/03/30 19:59:25;;;;;;;;;38.00;34.67;;;;;;;;6491191;39;8887;-56
2024/03/30 20:05:27;;;;;;;;;41.00;33.50;;;;;;;;6490242;31;8949;-57
2024/03/30 20:11:28;;;;;;;;;44.67;37.00;;;;;;;;6490049;47;9130;-56
2024/03/30 20:17:29;;;;;;;;;45.33;38.00;;;;;;;;6490318;39;8971;-55
2024/03/30 20:23:33;;;;;;;;;47.33;39.33;;;;;;;;6490008;39;8879;-57
2024/03/30 20:29:35;;;;;;;;;47.00;39.00;;;;;;;;6489523;39;8853;-54
2024/03/30 20:35:36;;;;;;;;;45.33;39.67;;;;;;;;6491065;31;8907;-55
2024/03/30 20:41:39;;;;;;;;;49.67;40.00;;;;;;;;6490547;39;9071;-56
2024/03/30 20:47:41;;;;;;;;;46.67;40.00;;;;;;;;6492066;39;8970;-57
2024/03/30 20:53:42;;;;;;;;;51.00;42.67;;;;;;;;6491994;31;8986;-53
2024/03/30 20:59:44;;;;;;;;;48.33;41.00;;;;;;;;6492544;39;8954;-54
2024/03/30 21:05:48;;;;;;;;;45.67;39.33;;;;;;;;6492127;39;8967;-53
2024/03/30 21:11:50;;;;;;;;;47.67;38.67;;;;;;;;6491796;39;8982;-54
2024/03/30 21:17:52;;;;;;;;;39.33;36.33;;;;;;;;6492353;31;8887;-55
2024/03/30 21:23:54;;;;;;;;;52.00;40.67;;;;;;;;6490532;39;8910;-57
2024/03/30 21:29:55;;;;;;;;;52.50;43.50;;;;;;;;6491593;39;8865;-56
2024/03/30 21:35:56;;;;;;;;;52.67;42.00;;;;;;;;6490929;39;8911;-55
2024/03/30 21:41:58;;;;;;;;;50.67;43.33;;;;;;;;6491125;39;8917;-53
2024/03/30 21:47:59;;;;;;;;;48.67;40.33;;;;;;;;6492075;46;8900;-55
2024/03/30 21:54:00;;;;;;;;;52.00;42.00;;;;;;;;6536525;36;8897;-52
2024/03/30 22:00:03;;;;;;;;;48.67;41.00;;;;;;;;6492868;39;9105;-55
2024/03/30 22:06:24;;;;;;;;;48.33;41.67;;;;;;;;6488048;46;8994;-55
2024/03/30 22:12:26;;;;;;;;;51.00;40.67;;;;;;;;6307829;46;10001040;-52
2024/03/30 22:18:27;;;;;;;;;51.25;42.00;;;;;;;;6488317;39;8883;-53
2024/03/30 22:24:27;;;;;;;;;52.00;44.00;;;;;;;;6488159;31;8903;-52
2024/03/30 22:30:28;;;;;;;;;53.67;43.67;;;;;;;;6489224;39;8859;-54
2024/03/30 22:36:30;;;;;;;;;52.25;42.25;;;;;;;;6487044;46;8864;-52
2024/03/30 22:42:31;;;;;;;;;52.25;44.25;;;;;;;;6490450;39;8913;-54
2024/03/30 22:48:31;;;;;;;;;53.25;42.75;;;;;;;;6490688;39;8930;-54
2024/03/30 22:54:33;;;;;;;;;54.00;42.33;;;;;;;;6490774;46;8975;-54
2024/03/30 23:00:34;;;;;;;;;54.00;44.00;;;;;;;;6491555;31;9069;-53
2024/03/30 23:06:36;;;;;;;;;51.33;42.67;;;;;;;;6490572;39;8925;-53
2024/03/30 23:12:37;;;;;;;;;51.25;43.00;;;;;;;;6489179;31;8915;-53
2024/03/30 23:18:38;;;;;;;;;59.00;45.50;;;;;;;;6491450;39;9578;-56
2024/03/30 23:24:40;;;;;;;;;57.75;45.25;;;;;;;;6491469;31;8978;-55
2024/03/30 23:30:43;;;;;;;;;57.00;47.50;;;;;;;;6491861;31;9057;-55
2024/03/30 23:36:46;;;;;;;;;49.50;42.50;;;;;;;;6489983;46;8960;-52
2024/03/30 23:42:47;;;;;;;;;59.00;47.75;;;;;;;;6491003;39;8937;-57
2024/03/30 23:48:48;;;;;;;;;56.00;46.00;;;;;;;;6490354;47;8883;-53
2024/03/30 23:54:49;;;;;;;;;56.75;48.00;;;;;;;;6490116;47;8956;-53
